sensor_id;sensor_type;location;lat;lon;timestamp;P1;durP1;ratioP1;P2;durP2;ratioP2
4521;SDS011;2273;48.464;11.926;2023-02-28T00:00:08;7.23;;;5.80;;
4521;SDS011;2273;48.464;11.926;2023-02-28T00:02:42;8.88;;;5.32;;
4521;SDS011;2273;48.464;11.926;2023-02-28T00:05:08;7.18;;;5.25;;
4521;SDS011;2273;48.464;11.926;2023-02-28T00:07:35;8.27;;;5.65;;
4521;SDS011;2273;48.464;11.926;2023-02-28T00:10:00;7.10;;;5.63;;
4521;SDS011;2273;48.464;11.926;2023-02-28T00:12:27;8.02;;;5.10;;
4521;SDS011;2273;48.464;11.926;2023-02-28T00:14:52;7.30;;;5.40;;
4521;SDS011;2273;48.464;11.926;2023-02-28T00:17:18;10.70;;;5.97;;
4521;SDS011;2273;48.464;11.926;2023-02-28T00:19:49;7.00;;;5.03;;
4521;SDS011;2273;48.464;11.926;2023-02-28T00:22:15;7.18;;;5.22;;
4521;SDS011;2273;48.464;11.926;2023-02-28T00:24:42;7.40;;;5.28;;
4521;SDS011;2273;48.464;11.926;2023-02-28T00:27:07;7.90;;;5.53;;
4521;SDS011;2273;48.464;11.926;2023-02-28T00:29:32;8.20;;;4.97;;
4521;SDS011;2273;48.464;11.926;2023-02-28T00:31:58;5.63;;;4.73;;
4521;SDS011;2273;48.464;11.926;2023-02-28T00:34:23;8.70;;;5.37;;
4521;SDS011;2273;48.464;11.926;2023-02-28T00:36:49;7.77;;;5.60;;
4521;SDS011;2273;48.464;11.926;2023-02-28T00:39:14;7.17;;;5.00;;
4521;SDS011;2273;48.464;11.926;2023-02-28T00:41:40;6.80;;;5.10;;
4521;SDS011;2273;48.464;11.926;2023-02-28T00:44:06;7.80;;;5.30;;
4521;SDS011;2273;48.464;11.926;2023-02-28T00:46:31;7.50;;;5.10;;
4521;SDS011;2273;48.464;11.926;2023-02-28T00:48:57;7.90;;;5.70;;
4521;SDS011;2273;48.464;11.926;2023-02-28T00:51:22;15.17;;;5.30;;
4521;SDS011;2273;48.464;11.926;2023-02-28T00:53:47;8.03;;;5.87;;
4521;SDS011;2273;48.464;11.926;2023-02-28T00:56:15;6.43;;;5.03;;
4521;SDS011;2273;48.464;11.926;2023-02-28T00:58:41;9.80;;;5.20;;
4521;SDS011;2273;48.464;11.926;2023-02-28T01:01:06;7.27;;;5.47;;
4521;SDS011;2273;48.464;11.926;2023-02-28T01:03:32;6.60;;;5.30;;
4521;SDS011;2273;48.464;11.926;2023-02-28T01:05:57;8.70;;;5.60;;
4521;SDS011;2273;48.464;11.926;2023-02-28T01:08:23;8.70;;;5.23;;
4521;SDS011;2273;48.464;11.926;2023-02-28T01:10:49;8.48;;;5.45;;
4521;SDS011;2273;48.464;11.926;2023-02-28T01:13:15;7.80;;;4.97;;
4521;SDS011;2273;48.464;11.926;2023-02-28T01:15:42;9.48;;;5.53;;
4521;SDS011;2273;48.464;11.926;2023-02-28T01:18:10;6.85;;;5.00;;
4521;SDS011;2273;48.464;11.926;2023-02-28T01:20:36;9.40;;;5.73;;
4521;SDS011;2273;48.464;11.926;2023-02-28T01:23:02;7.93;;;5.55;;
4521;SDS011;2273;48.464;11.926;2023-02-28T01:25:28;7.27;;;5.23;;
4521;SDS011;2273;48.464;11.926;2023-02-28T01:27:53;8.73;;;5.43;;
4521;SDS011;2273;48.464;11.926;2023-02-28T01:30:18;7.10;;;5.60;;
4521;SDS011;2273;48.464;11.926;2023-02-28T01:32:46;9.57;;;6.28;;
4521;SDS011;2273;48.464;11.926;2023-02-28T01:35:11;9.30;;;5.80;;
4521;SDS011;2273;48.464;11.926;2023-02-28T01:37:37;7.43;;;5.60;;
4521;SDS011;2273;48.464;11.926;2023-02-28T01:40:02;9.30;;;5.90;;
4521;SDS011;2273;48.464;11.926;2023-02-28T01:42:28;9.40;;;6.20;;
4521;SDS011;2273;48.464;11.926;2023-02-28T01:47:42;7.43;;;6.00;;
4521;SDS011;2273;48.464;11.926;2023-02-28T01:50:12;9.40;;;6.38;;
4521;SDS011;2273;48.464;11.926;2023-02-28T01:52:41;11.07;;;6.13;;
4521;SDS011;2273;48.464;11.926;2023-02-28T01:55:07;9.90;;;6.03;;
4521;SDS011;2273;48.464;11.926;2023-02-28T01:57:35;9.27;;;6.63;;
4521;SDS011;2273;48.464;11.926;2023-02-28T02:00:05;9.43;;;6.22;;
4521;SDS011;2273;48.464;11.926;2023-02-28T02:02:45;7.60;;;5.60;;
4521;SDS011;2273;48.464;11.926;2023-02-28T02:05:35;7.88;;;6.10;;
4521;SDS011;2273;48.464;11.926;2023-02-28T02:08:04;11.10;;;6.60;;
4521;SDS011;2273;48.464;11.926;2023-02-28T02:10:47;11.95;;;6.45;;
4521;SDS011;2273;48.464;11.926;2023-02-28T02:13:25;10.20;;;6.22;;
4521;SDS011;2273;48.464;11.926;2023-02-28T02:19:27;9.23;;;6.60;;
4521;SDS011;2273;48.464;11.926;2023-02-28T02:24:48;7.70;;;6.10;;
4521;SDS011;2273;48.464;11.926;2023-02-28T02:36:00;9.82;;;6.35;;
4521;SDS011;2273;48.464;11.926;2023-02-28T02:43:58;10.13;;;6.45;;
4521;SDS011;2273;48.464;11.926;2023-02-28T02:46:29;8.63;;;5.97;;
4521;SDS011;2273;48.464;11.926;2023-02-28T02:48:57;9.68;;;6.13;;
4521;SDS011;2273;48.464;11.926;2023-02-28T02:51:25;11.13;;;6.30;;
4521;SDS011;2273;48.464;11.926;2023-02-28T02:53:54;9.77;;;6.72;;
4521;SDS011;2273;48.464;11.926;2023-02-28T02:56:25;8.95;;;6.60;;
4521;SDS011;2273;48.464;11.926;2023-02-28T02:58:53;9.50;;;6.80;;
4521;SDS011;2273;48.464;11.926;2023-02-28T03:01:21;9.70;;;6.70;;
4521;SDS011;2273;48.464;11.926;2023-02-28T03:03:55;14.77;;;7.35;;
4521;SDS011;2273;48.464;11.926;2023-02-28T03:06:26;11.15;;;7.07;;
4521;SDS011;2273;48.464;11.926;2023-02-28T03:08:52;10.45;;;6.68;;
4521;SDS011;2273;48.464;11.926;2023-02-28T03:11:18;16.87;;;7.13;;
4521;SDS011;2273;48.464;11.926;2023-02-28T03:14:28;13.10;;;7.20;;
4521;SDS011;2273;48.464;11.926;2023-02-28T03:17:12;10.55;;;7.43;;
4521;SDS011;2273;48.464;11.926;2023-02-28T03:22:48;13.82;;;7.50;;
4521;SDS011;2273;48.464;11.926;2023-02-28T03:28:16;10.45;;;6.80;;
4521;SDS011;2273;48.464;11.926;2023-02-28T03:30:53;10.82;;;7.32;;
4521;SDS011;2273;48.464;11.926;2023-02-28T03:33:25;10.75;;;7.22;;
4521;SDS011;2273;48.464;11.926;2023-02-28T03:36:01;20.42;;;8.23;;
4521;SDS011;2273;48.464;11.926;2023-02-28T03:41:32;12.63;;;7.45;;
4521;SDS011;2273;48.464;11.926;2023-02-28T03:47:04;10.18;;;7.35;;
4521;SDS011;2273;48.464;11.926;2023-02-28T03:49:44;12.38;;;8.25;;
4521;SDS011;2273;48.464;11.926;2023-02-28T03:52:33;12.30;;;7.80;;
4521;SDS011;2273;48.464;11.926;2023-02-28T03:55:02;12.18;;;8.15;;
4521;SDS011;2273;48.464;11.926;2023-02-28T03:57:34;11.15;;;7.35;;
4521;SDS011;2273;48.464;11.926;2023-02-28T04:00:11;15.38;;;8.60;;
4521;SDS011;2273;48.464;11.926;2023-02-28T04:02:44;16.15;;;8.50;;
4521;SDS011;2273;48.464;11.926;2023-02-28T04:05:10;13.67;;;8.47;;
4521;SDS011;2273;48.464;11.926;2023-02-28T04:07:36;13.57;;;8.47;;
4521;SDS011;2273;48.464;11.926;2023-02-28T04:10:02;15.40;;;8.50;;
4521;SDS011;2273;48.464;11.926;2023-02-28T04:12:28;12.65;;;8.20;;
4521;SDS011;2273;48.464;11.926;2023-02-28T04:14:53;12.17;;;7.80;;
4521;SDS011;2273;48.464;11.926;2023-02-28T04:17:19;13.40;;;8.13;;
4521;SDS011;2273;48.464;11.926;2023-02-28T04:19:44;13.93;;;8.30;;
4521;SDS011;2273;48.464;11.926;2023-02-28T04:22:10;16.10;;;9.80;;
4521;SDS011;2273;48.464;11.926;2023-02-28T04:24:35;12.77;;;8.97;;
4521;SDS011;2273;48.464;11.926;2023-02-28T04:27:01;13.83;;;9.00;;
4521;SDS011;2273;48.464;11.926;2023-02-28T04:29:27;15.37;;;8.90;;
4521;SDS011;2273;48.464;11.926;2023-02-28T04:31:54;15.18;;;8.68;;
4521;SDS011;2273;48.464;11.926;2023-02-28T04:34:24;14.00;;;8.73;;
4521;SDS011;2273;48.464;11.926;2023-02-28T04:36:50;13.38;;;8.90;;
4521;SDS011;2273;48.464;11.926;2023-02-28T04:39:16;12.90;;;8.60;;
4521;SDS011;2273;48.464;11.926;2023-02-28T04:41:43;11.43;;;8.30;;
4521;SDS011;2273;48.464;11.926;2023-02-28T04:44:09;14.13;;;8.60;;
4521;SDS011;2273;48.464;11.926;2023-02-28T04:46:35;15.93;;;8.60;;
4521;SDS011;2273;48.464;11.926;2023-02-28T04:49:00;15.43;;;9.40;;
4521;SDS011;2273;48.464;11.926;2023-02-28T04:51:26;17.17;;;9.40;;
4521;SDS011;2273;48.464;11.926;2023-02-28T04:53:51;15.13;;;8.73;;
4521;SDS011;2273;48.464;11.926;2023-02-28T04:56:17;15.60;;;9.00;;
4521;SDS011;2273;48.464;11.926;2023-02-28T04:58:43;15.77;;;9.13;;
4521;SDS011;2273;48.464;11.926;2023-02-28T05:01:20;14.87;;;8.93;;
4521;SDS011;2273;48.464;11.926;2023-02-28T05:03:51;15.95;;;9.65;;
4521;SDS011;2273;48.464;11.926;2023-02-28T05:06:17;18.70;;;10.00;;
4521;SDS011;2273;48.464;11.926;2023-02-28T05:08:43;11.87;;;8.37;;
4521;SDS011;2273;48.464;11.926;2023-02-28T05:11:13;15.20;;;8.93;;
4521;SDS011;2273;48.464;11.926;2023-02-28T05:13:41;14.10;;;8.80;;
4521;SDS011;2273;48.464;11.926;2023-02-28T05:16:06;15.17;;;8.80;;
4521;SDS011;2273;48.464;11.926;2023-02-28T05:18:32;14.90;;;9.70;;
4521;SDS011;2273;48.464;11.926;2023-02-28T05:20:57;15.87;;;10.13;;
4521;SDS011;2273;48.464;11.926;2023-02-28T05:23:23;14.87;;;9.77;;
4521;SDS011;2273;48.464;11.926;2023-02-28T05:25:48;17.67;;;9.17;;
4521;SDS011;2273;48.464;11.926;2023-02-28T05:28:14;15.00;;;9.27;;
4521;SDS011;2273;48.464;11.926;2023-02-28T05:30:39;15.60;;;9.70;;
4521;SDS011;2273;48.464;11.926;2023-02-28T05:33:05;17.83;;;9.73;;
4521;SDS011;2273;48.464;11.926;2023-02-28T05:35:30;14.43;;;9.10;;
4521;SDS011;2273;48.464;11.926;2023-02-28T05:37:56;16.17;;;9.23;;
4521;SDS011;2273;48.464;11.926;2023-02-28T05:40:21;22.07;;;10.53;;
4521;SDS011;2273;48.464;11.926;2023-02-28T05:42:47;16.20;;;9.50;;
4521;SDS011;2273;48.464;11.926;2023-02-28T05:45:12;14.13;;;9.20;;
4521;SDS011;2273;48.464;11.926;2023-02-28T05:47:38;13.30;;;8.90;;
4521;SDS011;2273;48.464;11.926;2023-02-28T05:50:03;15.70;;;9.80;;
4521;SDS011;2273;48.464;11.926;2023-02-28T05:52:30;13.52;;;9.23;;
4521;SDS011;2273;48.464;11.926;2023-02-28T05:54:55;13.60;;;9.40;;
4521;SDS011;2273;48.464;11.926;2023-02-28T05:57:21;17.20;;;9.93;;
4521;SDS011;2273;48.464;11.926;2023-02-28T05:59:47;15.37;;;9.70;;
4521;SDS011;2273;48.464;11.926;2023-02-28T06:02:13;15.40;;;10.23;;
4521;SDS011;2273;48.464;11.926;2023-02-28T06:04:39;15.80;;;9.55;;
4521;SDS011;2273;48.464;11.926;2023-02-28T06:07:05;18.80;;;9.80;;
4521;SDS011;2273;48.464;11.926;2023-02-28T06:09:31;15.83;;;10.07;;
4521;SDS011;2273;48.464;11.926;2023-02-28T06:12:00;18.27;;;9.77;;
4521;SDS011;2273;48.464;11.926;2023-02-28T06:14:28;14.93;;;10.15;;
4521;SDS011;2273;48.464;11.926;2023-02-28T06:16:56;15.05;;;8.90;;
4521;SDS011;2273;48.464;11.926;2023-02-28T06:19:22;17.93;;;9.77;;
4521;SDS011;2273;48.464;11.926;2023-02-28T06:21:49;18.90;;;10.70;;
4521;SDS011;2273;48.464;11.926;2023-02-28T06:24:15;18.83;;;11.43;;
4521;SDS011;2273;48.464;11.926;2023-02-28T06:26:41;15.27;;;10.17;;
4521;SDS011;2273;48.464;11.926;2023-02-28T06:29:06;18.30;;;10.17;;
4521;SDS011;2273;48.464;11.926;2023-02-28T06:31:32;18.53;;;9.93;;
4521;SDS011;2273;48.464;11.926;2023-02-28T06:33:57;15.93;;;10.00;;
4521;SDS011;2273;48.464;11.926;2023-02-28T06:36:23;16.83;;;10.00;;
4521;SDS011;2273;48.464;11.926;2023-02-28T06:38:49;17.33;;;10.50;;
4521;SDS011;2273;48.464;11.926;2023-02-28T06:41:19;15.93;;;10.00;;
4521;SDS011;2273;48.464;11.926;2023-02-28T06:43:46;18.13;;;9.65;;
4521;SDS011;2273;48.464;11.926;2023-02-28T06:46:12;17.00;;;10.27;;
4521;SDS011;2273;48.464;11.926;2023-02-28T06:48:39;17.27;;;10.50;;
4521;SDS011;2273;48.464;11.926;2023-02-28T06:51:06;17.15;;;10.43;;
4521;SDS011;2273;48.464;11.926;2023-02-28T06:53:32;15.95;;;9.65;;
4521;SDS011;2273;48.464;11.926;2023-02-28T06:55:58;14.63;;;9.37;;
4521;SDS011;2273;48.464;11.926;2023-02-28T06:58:23;19.87;;;10.53;;
4521;SDS011;2273;48.464;11.926;2023-02-28T07:00:50;17.53;;;10.63;;
4521;SDS011;2273;48.464;11.926;2023-02-28T07:03:17;19.45;;;10.25;;
4521;SDS011;2273;48.464;11.926;2023-02-28T07:05:43;23.48;;;10.55;;
4521;SDS011;2273;48.464;11.926;2023-02-28T07:08:09;20.13;;;10.47;;
4521;SDS011;2273;48.464;11.926;2023-02-28T07:10:36;15.17;;;9.97;;
4521;SDS011;2273;48.464;11.926;2023-02-28T07:13:03;17.90;;;10.95;;
4521;SDS011;2273;48.464;11.926;2023-02-28T07:15:29;26.83;;;10.30;;
4521;SDS011;2273;48.464;11.926;2023-02-28T07:17:54;15.90;;;10.13;;
4521;SDS011;2273;48.464;11.926;2023-02-28T07:20:21;20.13;;;10.45;;
4521;SDS011;2273;48.464;11.926;2023-02-28T07:22:48;18.63;;;10.90;;
4521;SDS011;2273;48.464;11.926;2023-02-28T07:25:20;17.10;;;10.10;;
4521;SDS011;2273;48.464;11.926;2023-02-28T07:27:46;15.20;;;9.35;;
4521;SDS011;2273;48.464;11.926;2023-02-28T07:30:11;19.23;;;10.80;;
4521;SDS011;2273;48.464;11.926;2023-02-28T07:32:37;21.80;;;10.63;;
4521;SDS011;2273;48.464;11.926;2023-02-28T07:35:03;19.93;;;10.80;;
4521;SDS011;2273;48.464;11.926;2023-02-28T07:37:28;19.13;;;10.27;;
4521;SDS011;2273;48.464;11.926;2023-02-28T07:39:56;20.10;;;10.38;;
4521;SDS011;2273;48.464;11.926;2023-02-28T07:42:22;17.83;;;10.43;;
4521;SDS011;2273;48.464;11.926;2023-02-28T07:44:49;16.08;;;10.40;;
4521;SDS011;2273;48.464;11.926;2023-02-28T07:47:16;20.90;;;10.90;;
4521;SDS011;2273;48.464;11.926;2023-02-28T07:49:42;18.23;;;10.37;;
4521;SDS011;2273;48.464;11.926;2023-02-28T07:52:07;18.87;;;10.13;;
4521;SDS011;2273;48.464;11.926;2023-02-28T07:54:33;16.60;;;10.47;;
4521;SDS011;2273;48.464;11.926;2023-02-28T07:56:58;18.83;;;9.93;;
4521;SDS011;2273;48.464;11.926;2023-02-28T07:59:24;16.93;;;10.30;;
4521;SDS011;2273;48.464;11.926;2023-02-28T08:01:50;17.03;;;10.70;;
4521;SDS011;2273;48.464;11.926;2023-02-28T08:04:16;18.30;;;11.00;;
4521;SDS011;2273;48.464;11.926;2023-02-28T08:06:44;15.00;;;10.38;;
4521;SDS011;2273;48.464;11.926;2023-02-28T08:09:10;17.53;;;10.53;;
4521;SDS011;2273;48.464;11.926;2023-02-28T08:11:35;20.42;;;10.85;;
4521;SDS011;2273;48.464;11.926;2023-02-28T08:14:01;16.27;;;10.83;;
4521;SDS011;2273;48.464;11.926;2023-02-28T08:16:27;18.90;;;10.47;;
4521;SDS011;2273;48.464;11.926;2023-02-28T08:18:52;19.10;;;11.23;;
4521;SDS011;2273;48.464;11.926;2023-02-28T08:21:18;22.23;;;11.70;;
4521;SDS011;2273;48.464;11.926;2023-02-28T08:23:46;17.30;;;10.88;;
4521;SDS011;2273;48.464;11.926;2023-02-28T08:26:15;16.90;;;10.07;;
4521;SDS011;2273;48.464;11.926;2023-02-28T08:28:41;18.70;;;11.20;;
4521;SDS011;2273;48.464;11.926;2023-02-28T08:31:08;16.43;;;10.03;;
4521;SDS011;2273;48.464;11.926;2023-02-28T08:33:34;20.95;;;10.45;;
4521;SDS011;2273;48.464;11.926;2023-02-28T08:36:00;20.20;;;11.20;;
4521;SDS011;2273;48.464;11.926;2023-02-28T08:38:25;19.17;;;10.50;;
4521;SDS011;2273;48.464;11.926;2023-02-28T08:40:56;17.37;;;10.40;;
4521;SDS011;2273;48.464;11.926;2023-02-28T08:43:26;20.65;;;10.63;;
4521;SDS011;2273;48.464;11.926;2023-02-28T08:45:52;22.30;;;11.15;;
4521;SDS011;2273;48.464;11.926;2023-02-28T08:48:18;20.98;;;11.27;;
4521;SDS011;2273;48.464;11.926;2023-02-28T08:50:54;18.60;;;9.93;;
4521;SDS011;2273;48.464;11.926;2023-02-28T08:53:20;19.67;;;11.02;;
4521;SDS011;2273;48.464;11.926;2023-02-28T08:55:45;17.80;;;11.00;;
4521;SDS011;2273;48.464;11.926;2023-02-28T08:58:11;20.43;;;10.97;;
4521;SDS011;2273;48.464;11.926;2023-02-28T09:00:36;16.77;;;10.27;;
4521;SDS011;2273;48.464;11.926;2023-02-28T09:03:01;17.60;;;10.20;;
4521;SDS011;2273;48.464;11.926;2023-02-28T09:05:27;18.50;;;10.70;;
4521;SDS011;2273;48.464;11.926;2023-02-28T09:07:54;16.30;;;10.52;;
4521;SDS011;2273;48.464;11.926;2023-02-28T09:10:19;15.93;;;9.33;;
4521;SDS011;2273;48.464;11.926;2023-02-28T09:12:44;15.80;;;10.27;;
4521;SDS011;2273;48.464;11.926;2023-02-28T09:15:12;17.15;;;9.82;;
4521;SDS011;2273;48.464;11.926;2023-02-28T09:17:37;17.30;;;10.90;;
4521;SDS011;2273;48.464;11.926;2023-02-28T09:20:03;19.13;;;10.70;;
4521;SDS011;2273;48.464;11.926;2023-02-28T09:22:30;17.83;;;10.80;;
4521;SDS011;2273;48.464;11.926;2023-02-28T09:24:55;16.97;;;10.27;;
4521;SDS011;2273;48.464;11.926;2023-02-28T09:27:20;16.70;;;10.37;;
4521;SDS011;2273;48.464;11.926;2023-02-28T09:29:46;17.83;;;11.00;;
4521;SDS011;2273;48.464;11.926;2023-02-28T09:32:11;17.30;;;10.43;;
4521;SDS011;2273;48.464;11.926;2023-02-28T09:34:37;16.20;;;10.77;;
4521;SDS011;2273;48.464;11.926;2023-02-28T09:37:02;16.53;;;9.20;;
4521;SDS011;2273;48.464;11.926;2023-02-28T09:39:28;19.40;;;10.50;;
4521;SDS011;2273;48.464;11.926;2023-02-28T09:41:54;17.92;;;10.32;;
4521;SDS011;2273;48.464;11.926;2023-02-28T09:44:22;13.55;;;9.43;;
4521;SDS011;2273;48.464;11.926;2023-02-28T09:49:44;17.40;;;10.93;;
4521;SDS011;2273;48.464;11.926;2023-02-28T09:52:13;17.92;;;10.20;;
4521;SDS011;2273;48.464;11.926;2023-02-28T09:54:44;16.35;;;10.77;;
4521;SDS011;2273;48.464;11.926;2023-02-28T09:57:27;16.20;;;10.27;;
4521;SDS011;2273;48.464;11.926;2023-02-28T10:05:15;17.92;;;10.55;;
4521;SDS011;2273;48.464;11.926;2023-02-28T10:10:26;16.15;;;10.48;;
4521;SDS011;2273;48.464;11.926;2023-02-28T10:12:54;18.88;;;11.57;;
4521;SDS011;2273;48.464;11.926;2023-02-28T10:15:22;18.48;;;11.32;;
4521;SDS011;2273;48.464;11.926;2023-02-28T10:17:51;18.77;;;11.57;;
4521;SDS011;2273;48.464;11.926;2023-02-28T10:20:20;15.13;;;10.57;;
4521;SDS011;2273;48.464;11.926;2023-02-28T10:22:52;17.40;;;10.20;;
4521;SDS011;2273;48.464;11.926;2023-02-28T10:25:23;17.27;;;11.02;;
4521;SDS011;2273;48.464;11.926;2023-02-28T10:27:57;19.95;;;10.93;;
4521;SDS011;2273;48.464;11.926;2023-02-28T10:30:26;18.70;;;10.48;;
4521;SDS011;2273;48.464;11.926;2023-02-28T10:32:52;20.50;;;11.30;;
4521;SDS011;2273;48.464;11.926;2023-02-28T10:35:20;19.50;;;11.50;;
4521;SDS011;2273;48.464;11.926;2023-02-28T10:37:49;17.25;;;11.15;;
4521;SDS011;2273;48.464;11.926;2023-02-28T10:43:20;17.60;;;11.23;;
4521;SDS011;2273;48.464;11.926;2023-02-28T10:45:39;16.45;;;11.02;;
4521;SDS011;2273;48.464;11.926;2023-02-28T10:50:43;15.63;;;10.60;;
4521;SDS011;2273;48.464;11.926;2023-02-28T10:53:15;17.70;;;11.13;;
4521;SDS011;2273;48.464;11.926;2023-02-28T10:58:22;19.63;;;10.70;;
4521;SDS011;2273;48.464;11.926;2023-02-28T11:00:48;19.42;;;11.35;;
4521;SDS011;2273;48.464;11.926;2023-02-28T11:03:25;20.77;;;10.90;;
4521;SDS011;2273;48.464;11.926;2023-02-28T11:05:54;20.25;;;12.13;;
4521;SDS011;2273;48.464;11.926;2023-02-28T11:08:19;19.93;;;11.00;;
4521;SDS011;2273;48.464;11.926;2023-02-28T11:10:46;17.00;;;11.17;;
4521;SDS011;2273;48.464;11.926;2023-02-28T11:13:19;19.55;;;11.73;;
4521;SDS011;2273;48.464;11.926;2023-02-28T11:15:50;17.15;;;10.70;;
4521;SDS011;2273;48.464;11.926;2023-02-28T11:18:24;17.60;;;10.57;;
4521;SDS011;2273;48.464;11.926;2023-02-28T11:20:56;18.50;;;11.48;;
4521;SDS011;2273;48.464;11.926;2023-02-28T11:23:25;17.15;;;11.52;;
4521;SDS011;2273;48.464;11.926;2023-02-28T11:25:52;19.80;;;11.80;;
4521;SDS011;2273;48.464;11.926;2023-02-28T11:28:27;16.85;;;12.07;;
4521;SDS011;2273;48.464;11.926;2023-02-28T11:33:45;20.95;;;12.80;;
4521;SDS011;2273;48.464;11.926;2023-02-28T11:36:19;18.55;;;11.52;;
4521;SDS011;2273;48.464;11.926;2023-02-28T11:38:45;17.05;;;11.88;;
4521;SDS011;2273;48.464;11.926;2023-02-28T11:46:57;22.08;;;10.80;;
4521;SDS011;2273;48.464;11.926;2023-02-28T12:03:03;18.27;;;11.77;;
4521;SDS011;2273;48.464;11.926;2023-02-28T12:05:58;16.85;;;11.50;;
4521;SDS011;2273;48.464;11.926;2023-02-28T12:11:25;17.92;;;11.60;;
4521;SDS011;2273;48.464;11.926;2023-02-28T12:14:09;17.92;;;12.48;;
4521;SDS011;2273;48.464;11.926;2023-02-28T12:22:40;18.10;;;11.50;;
4521;SDS011;2273;48.464;11.926;2023-02-28T12:27:38;19.77;;;12.50;;
4521;SDS011;2273;48.464;11.926;2023-02-28T12:30:08;19.20;;;12.15;;
4521;SDS011;2273;48.464;11.926;2023-02-28T12:32:41;19.07;;;11.57;;
4521;SDS011;2273;48.464;11.926;2023-02-28T12:37:36;17.67;;;11.43;;
4521;SDS011;2273;48.464;11.926;2023-02-28T12:40:19;20.23;;;11.90;;
4521;SDS011;2273;48.464;11.926;2023-02-28T12:42:50;29.50;;;11.57;;
4521;SDS011;2273;48.464;11.926;2023-02-28T12:47:58;21.40;;;14.00;;
4521;SDS011;2273;48.464;11.926;2023-02-28T12:50:26;22.30;;;12.33;;
4521;SDS011;2273;48.464;11.926;2023-02-28T12:52:55;16.02;;;11.55;;
4521;SDS011;2273;48.464;11.926;2023-02-28T12:58:11;19.90;;;13.27;;
4521;SDS011;2273;48.464;11.926;2023-02-28T13:01:25;21.80;;;12.70;;
4521;SDS011;2273;48.464;11.926;2023-02-28T13:04:07;24.92;;;13.18;;
4521;SDS011;2273;48.464;11.926;2023-02-28T13:09:39;17.50;;;12.07;;
4521;SDS011;2273;48.464;11.926;2023-02-28T13:12:14;17.70;;;11.90;;
4521;SDS011;2273;48.464;11.926;2023-02-28T13:14:40;20.87;;;11.43;;
4521;SDS011;2273;48.464;11.926;2023-02-28T13:19:46;19.07;;;11.70;;
4521;SDS011;2273;48.464;11.926;2023-02-28T13:27:59;23.17;;;12.30;;
4521;SDS011;2273;48.464;11.926;2023-02-28T13:33:31;21.57;;;11.73;;
4521;SDS011;2273;48.464;11.926;2023-02-28T13:47:27;19.80;;;12.10;;
4521;SDS011;2273;48.464;11.926;2023-02-28T13:50:01;19.40;;;12.47;;
4521;SDS011;2273;48.464;11.926;2023-02-28T13:52:55;21.03;;;12.20;;
4521;SDS011;2273;48.464;11.926;2023-02-28T14:11:39;19.33;;;12.33;;
4521;SDS011;2273;48.464;11.926;2023-02-28T14:14:06;19.43;;;11.63;;
4521;SDS011;2273;48.464;11.926;2023-02-28T14:16:40;16.97;;;12.20;;
4521;SDS011;2273;48.464;11.926;2023-02-28T14:19:11;18.40;;;12.90;;
4521;SDS011;2273;48.464;11.926;2023-02-28T14:21:43;19.40;;;12.90;;
4521;SDS011;2273;48.464;11.926;2023-02-28T14:36:31;19.70;;;12.53;;
4521;SDS011;2273;48.464;11.926;2023-02-28T14:38:59;19.60;;;12.47;;
4521;SDS011;2273;48.464;11.926;2023-02-28T14:41:33;21.57;;;12.87;;
4521;SDS011;2273;48.464;11.926;2023-02-28T14:44:02;17.00;;;11.23;;
4521;SDS011;2273;48.464;11.926;2023-02-28T14:46:38;27.23;;;12.60;;
4521;SDS011;2273;48.464;11.926;2023-02-28T14:49:05;17.70;;;12.10;;
4521;SDS011;2273;48.464;11.926;2023-02-28T14:51:32;21.63;;;13.93;;
4521;SDS011;2273;48.464;11.926;2023-02-28T14:53:58;20.17;;;12.20;;
4521;SDS011;2273;48.464;11.926;2023-02-28T14:56:35;19.73;;;12.80;;
4521;SDS011;2273;48.464;11.926;2023-02-28T14:59:02;21.60;;;13.40;;
4521;SDS011;2273;48.464;11.926;2023-02-28T15:01:28;21.63;;;13.40;;
4521;SDS011;2273;48.464;11.926;2023-02-28T15:04:04;20.03;;;12.60;;
4521;SDS011;2273;48.464;11.926;2023-02-28T15:06:31;21.33;;;12.40;;
4521;SDS011;2273;48.464;11.926;2023-02-28T15:09:16;23.23;;;14.87;;
4521;SDS011;2273;48.464;11.926;2023-02-28T15:11:47;24.47;;;12.93;;
4521;SDS011;2273;48.464;11.926;2023-02-28T15:14:15;18.30;;;12.57;;
4521;SDS011;2273;48.464;11.926;2023-02-28T15:16:44;20.90;;;12.63;;
4521;SDS011;2273;48.464;11.926;2023-02-28T15:21:51;17.73;;;11.93;;
4521;SDS011;2273;48.464;11.926;2023-02-28T15:24:31;19.50;;;13.20;;
4521;SDS011;2273;48.464;11.926;2023-02-28T15:27:12;20.50;;;12.80;;
4521;SDS011;2273;48.464;11.926;2023-02-28T15:29:47;20.30;;;12.70;;
4521;SDS011;2273;48.464;11.926;2023-02-28T15:32:29;21.00;;;14.13;;
4521;SDS011;2273;48.464;11.926;2023-02-28T15:34:57;19.93;;;13.10;;
4521;SDS011;2273;48.464;11.926;2023-02-28T15:39:51;21.87;;;13.47;;
4521;SDS011;2273;48.464;11.926;2023-02-28T15:42:19;26.20;;;14.50;;
4521;SDS011;2273;48.464;11.926;2023-02-28T15:44:46;25.00;;;15.40;;
4521;SDS011;2273;48.464;11.926;2023-02-28T15:47:16;20.23;;;13.80;;
4521;SDS011;2273;48.464;11.926;2023-02-28T15:50:08;20.30;;;13.25;;
4521;SDS011;2273;48.464;11.926;2023-02-28T15:52:34;20.20;;;13.50;;
4521;SDS011;2273;48.464;11.926;2023-02-28T15:55:10;21.93;;;13.33;;
4521;SDS011;2273;48.464;11.926;2023-02-28T15:57:51;20.43;;;13.87;;
4521;SDS011;2273;48.464;11.926;2023-02-28T16:00:20;22.90;;;14.48;;
4521;SDS011;2273;48.464;11.926;2023-02-28T16:02:47;22.20;;;14.20;;
4521;SDS011;2273;48.464;11.926;2023-02-28T16:05:17;26.23;;;12.73;;
4521;SDS011;2273;48.464;11.926;2023-02-28T16:07:46;24.97;;;15.00;;
4521;SDS011;2273;48.464;11.926;2023-02-28T16:10:13;21.57;;;13.27;;
4521;SDS011;2273;48.464;11.926;2023-02-28T16:12:40;21.37;;;14.00;;
4521;SDS011;2273;48.464;11.926;2023-02-28T16:15:14;23.13;;;14.65;;
4521;SDS011;2273;48.464;11.926;2023-02-28T16:17:43;24.83;;;14.83;;
4521;SDS011;2273;48.464;11.926;2023-02-28T16:20:18;21.53;;;13.50;;
4521;SDS011;2273;48.464;11.926;2023-02-28T16:22:51;20.58;;;13.32;;
4521;SDS011;2273;48.464;11.926;2023-02-28T16:25:18;24.80;;;15.37;;
4521;SDS011;2273;48.464;11.926;2023-02-28T16:27:45;21.50;;;13.63;;
4521;SDS011;2273;48.464;11.926;2023-02-28T16:30:21;23.40;;;14.40;;
4521;SDS011;2273;48.464;11.926;2023-02-28T16:32:50;22.77;;;14.77;;
4521;SDS011;2273;48.464;11.926;2023-02-28T16:35:17;24.20;;;14.75;;
4521;SDS011;2273;48.464;11.926;2023-02-28T16:37:43;20.02;;;13.82;;
4521;SDS011;2273;48.464;11.926;2023-02-28T16:40:13;25.43;;;15.63;;
4521;SDS011;2273;48.464;11.926;2023-02-28T16:42:43;29.77;;;14.98;;
4521;SDS011;2273;48.464;11.926;2023-02-28T16:45:17;27.42;;;15.27;;
4521;SDS011;2273;48.464;11.926;2023-02-28T16:47:44;23.88;;;14.70;;
4521;SDS011;2273;48.464;11.926;2023-02-28T16:50:14;24.40;;;16.33;;
4521;SDS011;2273;48.464;11.926;2023-02-28T16:52:41;28.55;;;18.83;;
4521;SDS011;2273;48.464;11.926;2023-02-28T16:55:06;28.37;;;17.77;;
4521;SDS011;2273;48.464;11.926;2023-02-28T16:57:32;29.20;;;16.80;;
4521;SDS011;2273;48.464;11.926;2023-02-28T16:59:58;26.97;;;16.20;;
4521;SDS011;2273;48.464;11.926;2023-02-28T17:02:23;25.70;;;15.90;;
4521;SDS011;2273;48.464;11.926;2023-02-28T17:04:48;26.33;;;15.87;;
4521;SDS011;2273;48.464;11.926;2023-02-28T17:07:14;27.37;;;16.83;;
4521;SDS011;2273;48.464;11.926;2023-02-28T17:09:41;28.88;;;17.95;;
4521;SDS011;2273;48.464;11.926;2023-02-28T17:12:08;28.60;;;16.27;;
4521;SDS011;2273;48.464;11.926;2023-02-28T17:14:34;30.75;;;18.33;;
4521;SDS011;2273;48.464;11.926;2023-02-28T17:16:59;26.37;;;17.20;;
4521;SDS011;2273;48.464;11.926;2023-02-28T17:19:25;26.60;;;17.60;;
4521;SDS011;2273;48.464;11.926;2023-02-28T17:21:50;27.10;;;15.53;;
4521;SDS011;2273;48.464;11.926;2023-02-28T17:24:16;27.00;;;15.07;;
4521;SDS011;2273;48.464;11.926;2023-02-28T17:26:41;30.03;;;17.70;;